Time;durP1;ratioP1;P1;durP2;ratioP2;P2;SDS_P1;SDS_P2;PMS_P1;PMS_P2;Temp;Humidity;BMP_temperature;BMP_pressure;BME280_temperature;BME280_humidity;BME280_pressure;Samples;Min_cycle;Max_cycle;Signal;HPM_P1;HPM_P2
2021/12/19 00:02:22;;;;;;;;;;;6.90;99.90;;;;;;5041265;23;19925;-81
2021/12/19 00:10:26;;;;;;;;;;;6.90;99.90;;;;;;5064109;28;19921;-81
2021/12/19 00:12:52;;;;;;;;;;;6.90;99.90;;;;;;5040872;23;20408;-81
2021/12/19 00:15:18;;;;;;;;;;;7.90;99.90;;;;;;5054936;23;19920;-81
2021/12/19 00:17:44;;;;;;;;;;;6.90;99.90;;;;;;5064119;28;19942;-81
2021/12/19 00:20:09;;;;;;;;;;;7.20;99.90;;;;;;5046489;28;19920;-81
2021/12/19 00:22:35;;;;;;;;;;;6.90;99.90;;;;;;5065346;23;19947;-81
2021/12/19 00:25:03;;;;;;;;;;;6.90;99.90;;;;;;5046795;28;20329;-81
2021/12/19 00:27:29;;;;;;;;;;;6.90;99.90;;;;;;5081253;28;19974;-81
2021/12/19 00:29:54;;;;;;;;;;;7.50;99.90;;;;;;5081099;28;19920;-81
2021/12/19 00:32:20;;;;;;;;;;;7.60;99.90;;;;;;5046746;28;19920;-81
2021/12/19 00:34:46;;;;;;;;;;;7.10;99.90;;;;;;5046022;28;19920;-81
2021/12/19 00:37:11;;;;;;;;;;;6.90;99.90;;;;;;5081526;28;19920;-81
2021/12/19 00:39:37;;;;;;;;;;;7.20;99.90;;;;;;5065882;23;19921;-81
2021/12/19 00:42:07;;;;;;;;;;;6.90;99.90;;;;;;5043341;28;20294;-81
2021/12/19 00:44:35;;;;;;;;;;;7.00;99.90;;;;;;5042953;28;19921;-81
2021/12/19 00:47:07;;;;;;;;;;;7.40;99.90;;;;;;5060325;28;19925;-81
2021/12/19 00:49:36;;;;;;;;;;;6.90;99.90;;;;;;5043381;28;20402;-81
2021/12/19 00:52:02;;;;;;;;;;;6.90;99.90;;;;;;5046195;23;19982;-81
2021/12/19 00:54:29;;;;;;;;;;;6.90;99.90;;;;;;5023705;28;20355;-81
2021/12/19 00:56:54;;;;;;;;;;;7.60;99.90;;;;;;5021725;28;20302;-80
2021/12/19 00:59:20;;;;;;;;;;;7.10;99.90;;;;;;5039823;28;20008;-80
2021/12/19 01:01:46;;;;;;;;;;;7.70;99.90;;;;;;5041089;28;19960;-80
2021/12/19 01:04:13;;;;;;;;;;;6.90;99.90;;;;;;5022803;28;19975;-80
2021/12/19 01:06:39;;;;;;;;;;;7.40;99.90;;;;;;5022772;28;19917;-80
2021/12/19 01:09:05;;;;;;;;;;;7.50;99.90;;;;;;5022877;28;19932;-80
2021/12/19 01:11:31;;;;;;;;;;;7.00;99.90;;;;;;5030522;23;19917;-80
2021/12/19 01:13:57;;;;;;;;;;;6.90;99.90;;;;;;5050766;23;19924;-80
2021/12/19 01:16:29;;;;;;;;;;;6.80;99.90;;;;;;5045400;28;19920;-80
2021/12/19 01:18:55;;;;;;;;;;;6.80;99.90;;;;;;5020352;28;19979;-80
2021/12/19 01:21:20;;;;;;;;;;;6.80;99.90;;;;;;5022164;28;19921;-80
2021/12/19 01:23:46;;;;;;;;;;;6.80;99.90;;;;;;5022378;28;19992;-80
2021/12/19 01:26:12;;;;;;;;;;;7.50;99.90;;;;;;5005427;28;19920;-80
2021/12/19 01:28:38;;;;;;;;;;;6.80;99.90;;;;;;5004969;28;19928;-80
2021/12/19 01:31:05;;;;;;;;;;;6.90;99.90;;;;;;5022514;28;19921;-79
2021/12/19 01:33:31;;;;;;;;;;;6.80;99.90;;;;;;5021867;28;20004;-79
2021/12/19 01:35:57;;;;;;;;;;;6.80;99.90;;;;;;5022685;28;19987;-79
2021/12/19 01:38:22;;;;;;;;;;;6.80;99.90;;;;;;5006002;28;19921;-80
2021/12/19 01:40:48;;;;;;;;;;;7.60;99.90;;;;;;5039739;28;20067;-79
2021/12/19 01:43:13;;;;;;;;;;;6.90;99.90;;;;;;5005718;28;19968;-80
2021/12/19 01:45:40;;;;;;;;;;;6.70;99.90;;;;;;5021317;28;19977;-79
2021/12/19 01:48:10;;;;;;;;;;;6.80;99.90;;;;;;5005726;28;19928;-80
2021/12/19 01:50:37;;;;;;;;;;;7.10;99.90;;;;;;5038811;22;19931;-80
2021/12/19 01:53:04;;;;;;;;;;;7.20;99.90;;;;;;5021523;28;19963;-80
2021/12/19 01:55:30;;;;;;;;;;;6.70;99.90;;;;;;5041200;22;20368;-80
2021/12/19 01:57:56;;;;;;;;;;;6.70;99.90;;;;;;5040713;28;19921;-80
2021/12/19 02:00:26;;;;;;;;;;;7.80;99.90;;;;;;5041211;28;19923;-80
2021/12/19 02:02:53;;;;;;;;;;;6.80;99.90;;;;;;5040556;28;19992;-80
2021/12/19 02:05:19;;;;;;;;;;;7.40;99.90;;;;;;5041178;28;19925;-80
2021/12/19 02:07:46;;;;;;;;;;;7.00;99.90;;;;;;5040436;28;19920;-80
2021/12/19 02:10:13;;;;;;;;;;;6.80;99.90;;;;;;5056456;28;19927;-79
2021/12/19 02:12:39;;;;;;;;;;;7.00;99.90;;;;;;5040716;28;19921;-80
2021/12/19 02:15:05;;;;;;;;;;;7.80;99.90;;;;;;5039742;28;19920;-80
2021/12/19 02:17:30;;;;;;;;;;;6.80;99.90;;;;;;5056376;28;19927;-79
2021/12/19 02:22:14;;;;;;;;;;;6.80;99.90;;;;;;5112371;27;20298;-79
2021/12/19 02:24:40;;;;;;;;;;;6.90;99.90;;;;;;5111227;28;20015;-79
2021/12/19 02:27:06;;;;;;;;;;;7.50;99.90;;;;;;5111302;28;19927;-79
2021/12/19 02:29:31;;;;;;;;;;;6.80;99.90;;;;;;5095136;28;19924;-79
2021/12/19 02:31:57;;;;;;;;;;;6.70;99.90;;;;;;5110884;28;20369;-79
2021/12/19 02:34:26;;;;;;;;;;;7.30;99.90;;;;;;5111637;28;19928;-80
2021/12/19 02:37:03;;;;;;;;;;;7.80;99.90;;;;;;5111369;28;20089;-79
2021/12/19 02:48:13;;;;;;;;;;;6.50;99.90;;;;;;5111169;28;19924;-79
2021/12/19 02:50:45;;;;;;;;;;;7.00;99.90;;;;;;5110720;28;20389;-79
2021/12/19 02:53:10;;;;;;;;;;;6.50;99.90;;;;;;5094795;28;20022;-79
2021/12/19 02:55:36;;;;;;;;;;;6.40;99.90;;;;;;5111180;28;19963;-79
2021/12/19 02:58:02;;;;;;;;;;;6.40;99.90;;;;;;5112063;28;19920;-79
2021/12/19 03:00:27;;;;;;;;;;;6.40;99.90;;;;;;5112114;28;19924;-80
2021/12/19 03:02:53;;;;;;;;;;;6.40;99.90;;;;;;5110407;28;19969;-79
2021/12/19 03:05:19;;;;;;;;;;;6.40;99.90;;;;;;5093881;28;19927;-79
2021/12/19 03:07:45;;;;;;;;;;;6.40;99.90;;;;;;5110274;28;19931;-79
2021/12/19 03:18:08;;;;;;;;;;;6.40;99.90;;;;;;5111725;28;19924;-79
2021/12/19 03:20:34;;;;;;;;;;;6.40;99.90;;;;;;5093058;28;19928;-79
2021/12/19 03:23:00;;;;;;;;;;;6.30;99.90;;;;;;5093182;28;19931;-79
2021/12/19 03:25:27;;;;;;;;;;;6.30;99.90;;;;;;5110805;28;19924;-79
2021/12/19 03:27:53;;;;;;;;;;;6.60;99.90;;;;;;5111638;28;19928;-79
2021/12/19 03:30:18;;;;;;;;;;;6.30;99.90;;;;;;5110498;28;19924;-80
2021/12/19 03:32:44;;;;;;;;;;;7.10;99.90;;;;;;5109710;22;19930;-79
2021/12/19 03:35:10;;;;;;;;;;;7.10;99.90;;;;;;5079496;28;20344;-79
2021/12/19 03:37:36;;;;;;;;;;;6.30;99.90;;;;;;5097226;28;19924;-79
2021/12/19 03:40:09;;;;;;;;;;;6.50;99.90;;;;;;5080086;28;20027;-79
2021/12/19 03:42:36;;;;;;;;;;;6.40;99.90;;;;;;5079177;28;20428;-79
2021/12/19 03:45:02;;;;;;;;;;;6.40;99.90;;;;;;5062728;28;19924;-79
2021/12/19 03:47:27;;;;;;;;;;;6.40;99.90;;;;;;5097404;28;19978;-79
2021/12/19 03:49:53;;;;;;;;;;;6.40;99.90;;;;;;5079459;28;19928;-79
2021/12/19 03:52:18;;;;;;;;;;;7.30;99.90;;;;;;5079644;28;19925;-79
2021/12/19 03:54:44;;;;;;;;;;;7.00;99.90;;;;;;5079053;28;19924;-79
2021/12/19 03:57:09;;;;;;;;;;;7.30;99.90;;;;;;5079537;28;19924;-80
2021/12/19 03:59:35;;;;;;;;;;;6.30;99.90;;;;;;5061944;28;19924;-79
2021/12/19 04:02:01;;;;;;;;;;;7.10;99.90;;;;;;5096685;28;19946;-79
2021/12/19 04:04:27;;;;;;;;;;;6.30;99.90;;;;;;5078907;28;20003;-79
2021/12/19 04:06:54;;;;;;;;;;;5.90;99.90;;;;;;5078558;28;20455;-79
2021/12/19 04:09:20;;;;;;;;;;;6.20;99.90;;;;;;5078750;28;19924;-80
2021/12/19 04:11:45;;;;;;;;;;;6.20;99.90;;;;;;5079213;28;19931;-79
2021/12/19 04:14:11;;;;;;;;;;;6.20;99.90;;;;;;5096955;28;19924;-79
2021/12/19 04:16:36;;;;;;;;;;;6.90;99.90;;;;;;5062664;28;19954;-80
2021/12/19 04:19:02;;;;;;;;;;;7.20;99.90;;;;;;5079142;28;19985;-79
2021/12/19 04:21:27;;;;;;;;;;;6.20;99.90;;;;;;5062549;28;19924;-79
2021/12/19 04:23:53;;;;;;;;;;;6.20;99.90;;;;;;5096809;28;19932;-79
2021/12/19 04:26:18;;;;;;;;;;;6.20;99.90;;;;;;5062937;28;19920;-79
2021/12/19 04:28:44;;;;;;;;;;;6.50;99.90;;;;;;5079102;28;19963;-79
2021/12/19 04:31:10;;;;;;;;;;;7.20;99.90;;;;;;5069592;23;19924;-79
2021/12/19 04:33:38;;;;;;;;;;;7.10;99.90;;;;;;5079170;28;19924;-79
2021/12/19 04:36:07;;;;;;;;;;;6.20;99.90;;;;;;5097760;28;19924;-79
2021/12/19 04:53:03;;;;;;;;;;;6.20;99.90;;;;;;5044605;28;20288;-79
2021/12/19 04:57:37;;;;;;;;;;;6.30;99.90;;;;;;5095956;28;19928;-79
2021/12/19 05:00:08;;;;;;;;;;;6.20;99.90;;;;;;5078288;28;19924;-79
2021/12/19 05:15:55;;;;;;;;;;;6.20;99.90;;;;;;5077524;28;19928;-79
2021/12/19 05:18:24;;;;;;;;;;;7.00;99.90;;;;;;5061058;28;19977;-79
2021/12/19 05:20:55;;;;;;;;;;;6.70;99.90;;;;;;5076966;28;19928;-79
2021/12/19 05:25:55;;;;;;;;;;;6.40;99.90;;;;;;5077803;28;20385;-79
2021/12/19 05:28:21;;;;;;;;;;;6.30;99.90;;;;;;5060603;28;19924;-79
2021/12/19 05:30:47;;;;;;;;;;;6.40;99.90;;;;;;5095548;28;20381;-79
2021/12/19 05:33:12;;;;;;;;;;;6.40;99.90;;;;;;5095849;28;20347;-79
2021/12/19 05:46:29;;;;;;;;;;;6.40;99.90;;;;;;5077124;28;20020;-79
2021/12/19 05:48:55;;;;;;;;;;;6.40;99.90;;;;;;5094871;28;19924;-79
2021/12/19 05:51:21;;;;;;;;;;;6.40;99.90;;;;;;5061474;28;19924;-79
2021/12/19 05:53:46;;;;;;;;;;;6.40;99.90;;;;;;5094958;28;19924;-79
2021/12/19 05:56:12;;;;;;;;;;;6.40;99.90;;;;;;5077220;28;20061;-79
2021/12/19 05:58:38;;;;;;;;;;;7.30;99.90;;;;;;5095685;28;20018;-79
2021/12/19 06:01:03;;;;;;;;;;;6.50;99.90;;;;;;5059893;28;19930;-79
2021/12/19 06:03:29;;;;;;;;;;;6.50;99.90;;;;;;5103765;22;19930;-79
2021/12/19 06:05:54;;;;;;;;;;;6.70;99.90;;;;;;5077084;28;19924;-79
2021/12/19 06:08:20;;;;;;;;;;;6.60;99.90;;;;;;5095433;28;19920;-80
2021/12/19 06:10:45;;;;;;;;;;;7.10;99.90;;;;;;5059802;28;19924;-79
2021/12/19 06:13:11;;;;;;;;;;;6.50;99.90;;;;;;5059815;28;19924;-79
2021/12/19 06:15:37;;;;;;;;;;;7.30;99.90;;;;;;5076961;28;19920;-79
2021/12/19 06:18:03;;;;;;;;;;;7.60;99.90;;;;;;5077106;28;20301;-79
2021/12/19 06:20:31;;;;;;;;;;;6.50;99.90;;;;;;5076739;28;19966;-79
2021/12/19 06:22:56;;;;;;;;;;;6.60;99.90;;;;;;5059599;28;19924;-79
2021/12/19 06:25:22;;;;;;;;;;;6.60;99.90;;;;;;5076580;28;20015;-79
2021/12/19 06:27:47;;;;;;;;;;;6.60;99.90;;;;;;5094519;28;20346;-79
2021/12/19 06:30:13;;;;;;;;;;;7.00;99.90;;;;;;5076773;28;19924;-79
2021/12/19 06:32:39;;;;;;;;;;;6.80;99.90;;;;;;5076762;28;20293;-79
2021/12/19 06:35:08;;;;;;;;;;;7.60;99.90;;;;;;5059638;28;19924;-80
2021/12/19 06:37:37;;;;;;;;;;;6.60;99.90;;;;;;5095033;28;19924;-80
2021/12/19 06:40:06;;;;;;;;;;;6.60;99.90;;;;;;5059513;28;20394;-79
2021/12/19 06:42:32;;;;;;;;;;;6.60;99.90;;;;;;5076454;28;20006;-79
2021/12/19 06:44:58;;;;;;;;;;;6.60;99.90;;;;;;5059618;28;20401;-79
2021/12/19 06:47:23;;;;;;;;;;;6.60;99.90;;;;;;5083885;22;20019;-79
2021/12/19 06:49:49;;;;;;;;;;;6.60;99.90;;;;;;5079625;28;19924;-79
2021/12/19 06:52:14;;;;;;;;;;;7.50;99.90;;;;;;5096927;28;19924;-79
2021/12/19 06:54:40;;;;;;;;;;;6.60;99.90;;;;;;5080045;28;20349;-80
2021/12/19 06:57:06;;;;;;;;;;;6.60;99.90;;;;;;5079716;28;19930;-79
2021/12/19 06:59:31;;;;;;;;;;;7.40;99.90;;;;;;5096702;28;19963;-79
2021/12/19 07:01:57;;;;;;;;;;;6.60;99.90;;;;;;5097023;28;19981;-79
2021/12/19 07:04:22;;;;;;;;;;;6.60;99.90;;;;;;5079814;28;19986;-79
2021/12/19 07:06:48;;;;;;;;;;;7.40;99.90;;;;;;5115159;28;20374;-79
2021/12/19 07:09:13;;;;;;;;;;;7.20;99.90;;;;;;5100411;28;19934;-79
2021/12/19 07:11:39;;;;;;;;;;;6.90;99.90;;;;;;5102504;28;19920;-80
2021/12/19 07:14:04;;;;;;;;;;;7.60;99.90;;;;;;5085632;28;19923;-80
2021/12/19 07:16:30;;;;;;;;;;;6.60;99.90;;;;;;5117785;22;20369;-79
2021/12/19 07:18:56;;;;;;;;;;;6.60;99.90;;;;;;5063911;28;19932;-79
2021/12/19 07:21:23;;;;;;;;;;;6.60;99.90;;;;;;5082047;28;20434;-80
2021/12/19 07:23:49;;;;;;;;;;;7.40;99.90;;;;;;5080284;28;20370;-79
2021/12/19 07:26:15;;;;;;;;;;;6.60;99.90;;;;;;5063786;28;20019;-79
2021/12/19 07:28:41;;;;;;;;;;;6.60;99.90;;;;;;5062956;28;20447;-79
2021/12/19 07:31:06;;;;;;;;;;;6.60;99.90;;;;;;5062953;28;20014;-79
2021/12/19 07:33:32;;;;;;;;;;;6.60;99.90;;;;;;5062986;28;19928;-79
2021/12/19 07:36:00;;;;;;;;;;;6.70;99.90;;;;;;5098868;28;19931;-79
2021/12/19 07:38:34;;;;;;;;;;;6.90;99.90;;;;;;5080347;28;19943;-79
2021/12/19 07:41:01;;;;;;;;;;;6.60;99.90;;;;;;5079345;28;20290;-79
2021/12/19 07:43:27;;;;;;;;;;;6.80;99.90;;;;;;5096331;28;19924;-79
2021/12/19 07:45:52;;;;;;;;;;;7.10;99.90;;;;;;5098255;28;19927;-80
2021/12/19 07:48:18;;;;;;;;;;;7.10;99.90;;;;;;5062969;28;20018;-80
2021/12/19 07:50:44;;;;;;;;;;;6.60;99.90;;;;;;5063202;28;20381;-79
2021/12/19 07:53:09;;;;;;;;;;;7.20;99.90;;;;;;5097858;28;19969;-80
2021/12/19 07:55:35;;;;;;;;;;;6.60;99.90;;;;;;5074918;22;19935;-80
2021/12/19 07:58:01;;;;;;;;;;;6.60;99.90;;;;;;5081631;22;20405;-80
2021/12/19 08:00:26;;;;;;;;;;;6.60;99.90;;;;;;5085741;22;19925;-80
2021/12/19 08:02:52;;;;;;;;;;;6.60;99.90;;;;;;5072271;22;19928;-80
2021/12/19 08:05:18;;;;;;;;;;;6.60;99.90;;;;;;5066100;28;19924;-80
2021/12/19 08:07:47;;;;;;;;;;;7.20;99.90;;;;;;5099126;22;20258;-80
2021/12/19 08:11:39;;;;;;;;;;;6.60;99.90;;;;;;5102793;28;19957;-80
2021/12/19 08:12:59;;;;;;;;;;;6.60;99.90;;;;;;5101152;22;19931;-80
2021/12/19 08:15:25;;;;;;;;;;;6.60;99.90;;;;;;5062201;28;19974;-80
2021/12/19 08:17:51;;;;;;;;;;;7.30;99.90;;;;;;5087137;22;19928;-80
2021/12/19 08:20:17;;;;;;;;;;;6.60;99.90;;;;;;5063046;28;20293;-80
2021/12/19 08:22:43;;;;;;;;;;;7.10;99.90;;;;;;5081589;28;19924;-80
2021/12/19 08:25:09;;;;;;;;;;;6.60;99.90;;;;;;5064711;28;19931;-80
2021/12/19 08:27:34;;;;;;;;;;;6.60;99.90;;;;;;5097113;22;19969;-80
2021/12/19 08:30:00;;;;;;;;;;;6.50;99.90;;;;;;5063634;28;19924;-80
2021/12/19 08:32:26;;;;;;;;;;;6.90;99.90;;;;;;5078880;22;19923;-80
2021/12/19 08:34:52;;;;;;;;;;;6.60;99.90;;;;;;5100477;28;19924;-80
2021/12/19 08:37:17;;;;;;;;;;;7.40;99.90;;;;;;5085739;28;19924;-80
2021/12/19 08:39:43;;;;;;;;;;;6.60;99.90;;;;;;5087340;22;19931;-80
2021/12/19 08:42:09;;;;;;;;;;;6.60;99.90;;;;;;5074541;22;19930;-80
2021/12/19 08:44:35;;;;;;;;;;;6.60;99.90;;;;;;5076167;22;20022;-80
2021/12/19 08:47:01;;;;;;;;;;;6.60;99.90;;;;;;5063481;28;19946;-80
2021/12/19 08:49:26;;;;;;;;;;;6.60;99.90;;;;;;5079921;22;19930;-80
2021/12/19 08:51:52;;;;;;;;;;;6.70;99.90;;;;;;5077106;22;19929;-80
2021/12/19 08:54:17;;;;;;;;;;;7.30;99.90;;;;;;5062242;28;19972;-80
2021/12/19 08:56:43;;;;;;;;;;;6.60;99.90;;;;;;5069417;22;19925;-80
2021/12/19 08:59:09;;;;;;;;;;;7.30;99.90;;;;;;5072962;22;20070;-80
2021/12/19 09:01:36;;;;;;;;;;;6.60;99.90;;;;;;5062266;23;19931;-80
2021/12/19 09:04:02;;;;;;;;;;;6.70;99.90;;;;;;5079308;22;19932;-80
2021/12/19 09:06:28;;;;;;;;;;;6.70;99.90;;;;;;5073988;22;19924;-80
2021/12/19 09:08:53;;;;;;;;;;;6.70;99.90;;;;;;5040958;28;19963;-80
2021/12/19 09:11:19;;;;;;;;;;;7.70;99.90;;;;;;5041333;28;19921;-80
2021/12/19 09:13:45;;;;;;;;;;;6.70;99.90;;;;;;5058630;28;20023;-80
2021/12/19 09:16:10;;;;;;;;;;;7.60;99.90;;;;;;5040512;28;19929;-80
2021/12/19 09:18:36;;;;;;;;;;;7.40;99.90;;;;;;5066283;22;19928;-80
2021/12/19 09:21:01;;;;;;;;;;;6.70;99.90;;;;;;5083141;22;19924;-80
2021/12/19 09:23:28;;;;;;;;;;;6.80;99.90;;;;;;5061007;28;20022;-80
2021/12/19 09:25:53;;;;;;;;;;;6.80;99.90;;;;;;5061105;28;20287;-80
2021/12/19 09:28:19;;;;;;;;;;;7.20;99.90;;;;;;5067881;22;19924;-80
2021/12/19 09:30:45;;;;;;;;;;;7.60;99.90;;;;;;5059412;28;19924;-80
2021/12/19 09:33:11;;;;;;;;;;;6.80;99.90;;;;;;5061377;28;20367;-80
2021/12/19 09:35:37;;;;;;;;;;;6.80;99.90;;;;;;5089816;22;19924;-80
2021/12/19 09:38:03;;;;;;;;;;;7.00;99.90;;;;;;5101915;28;19924;-80
2021/12/19 09:40:34;;;;;;;;;;;6.80;99.90;;;;;;5111284;22;20278;-81
2021/12/19 09:43:04;;;;;;;;;;;6.80;99.90;;;;;;5064412;28;19928;-80
2021/12/19 09:45:31;;;;;;;;;;;6.80;99.90;;;;;;5091337;22;20017;-82
2021/12/19 09:47:57;;;;;;;;;;;6.50;99.90;;;;;;5079824;22;19960;-80
2021/12/19 09:50:22;;;;;;;;;;;6.90;99.90;;;;;;5040342;28;19951;-80
2021/12/19 09:52:49;;;;;;;;;;;6.90;99.90;;;;;;5048786;23;19925;-80
2021/12/19 09:55:18;;;;;;;;;;;6.90;99.90;;;;;;5062392;28;20016;-80
2021/12/19 09:57:44;;;;;;;;;;;6.90;99.90;;;;;;5062354;28;19921;-80
2021/12/19 10:00:10;;;;;;;;;;;7.80;99.90;;;;;;5078934;28;20271;-80
2021/12/19 10:02:35;;;;;;;;;;;6.90;99.90;;;;;;5062457;28;20324;-80
2021/12/19 10:05:13;;;;;;;;;;;7.00;99.90;;;;;;5069191;22;19929;-80
2021/12/19 10:07:45;;;;;;;;;;;7.00;99.90;;;;;;5062007;28;19932;-80
2021/12/19 10:10:13;;;;;;;;;;;7.00;99.90;;;;;;5095236;22;20292;-80
2021/12/19 10:15:13;;;;;;;;;;;7.00;99.90;;;;;;5122188;22;19928;-80
2021/12/19 10:17:39;;;;;;;;;;;7.00;99.90;;;;;;5065190;28;19931;-80
2021/12/19 10:20:07;;;;;;;;;;;7.90;99.90;;;;;;5064813;28;19971;-80
2021/12/19 10:22:34;;;;;;;;;;;7.10;99.90;;;;;;5100194;28;19935;-80
2021/12/19 10:25:09;;;;;;;;;;;7.10;99.90;;;;;;5065767;28;20068;-80
2021/12/19 10:27:35;;;;;;;;;;;7.10;99.90;;;;;;5064617;28;19925;-80
2021/12/19 10:30:02;;;;;;;;;;;7.10;99.90;;;;;;5075656;22;19931;-80
2021/12/19 10:32:27;;;;;;;;;;;7.10;99.90;;;;;;5084038;28;19977;-80
2021/12/19 10:35:12;;;;;;;;;;;7.10;99.90;;;;;;5082912;22;19970;-80
2021/12/19 10:37:38;;;;;;;;;;;7.20;99.90;;;;;;5064410;22;19932;-81
2021/12/19 10:40:04;;;;;;;;;;;7.10;99.90;;;;;;5056986;28;19983;-80
2021/12/19 10:42:34;;;;;;;;;;;7.20;99.90;;;;;;5066438;22;20020;-80
2021/12/19 10:47:45;;;;;;;;;;;8.00;99.90;;;;;;5108716;22;20279;-80
2021/12/19 10:50:10;;;;;;;;;;;7.20;99.90;;;;;;5068458;28;19934;-80
2021/12/19 10:52:38;;;;;;;;;;;8.30;99.90;;;;;;5067417;28;19924;-80
2021/12/19 10:55:05;;;;;;;;;;;7.30;99.90;;;;;;5084462;28;19984;-80
2021/12/19 10:57:32;;;;;;;;;;;7.30;99.90;;;;;;5068412;28;20386;-80
2021/12/19 10:59:58;;;;;;;;;;;7.60;99.90;;;;;;5086028;22;19928;-80
2021/12/19 11:02:37;;;;;;;;;;;7.30;99.90;;;;;;5067622;28;19925;-80
2021/12/19 11:05:03;;;;;;;;;;;7.30;99.90;;;;;;5073123;23;19987;-80
2021/12/19 11:07:29;;;;;;;;;;;7.30;99.90;;;;;;5107275;22;19977;-80
2021/12/19 11:09:54;;;;;;;;;;;7.30;99.90;;;;;;5105138;22;20957;-80
2021/12/19 11:12:20;;;;;;;;;;;7.30;99.90;;;;;;5046732;28;19924;-80
2021/12/19 11:14:48;;;;;;;;;;;7.30;99.90;;;;;;5046696;28;19998;-80
2021/12/19 11:17:22;;;;;;;;;;;7.30;99.90;;;;;;5066089;22;19923;-80
2021/12/19 11:19:49;;;;;;;;;;;7.30;99.90;;;;;;5085353;28;19935;-80
2021/12/19 11:22:23;;;;;;;;;;;8.00;99.90;;;;;;5085289;28;19983;-80
2021/12/19 11:24:50;;;;;;;;;;;8.40;99.90;;;;;;5079798;22;19928;-80
2021/12/19 11:27:15;;;;;;;;;;;7.30;99.90;;;;;;5063749;28;19935;-80
2021/12/19 11:29:44;;;;;;;;;;;7.30;99.90;;;;;;5087443;22;19925;-80
2021/12/19 11:32:18;;;;;;;;;;;7.40;99.90;;;;;;5063167;28;19971;-80
2021/12/19 11:34:58;;;;;;;;;;;7.30;99.90;;;;;;5079705;28;19963;-80
2021/12/19 11:37:29;;;;;;;;;;;7.30;99.90;;;;;;5062579;28;20359;-80
2021/12/19 11:39:56;;;;;;;;;;;7.40;99.90;;;;;;5079130;28;19921;-80
2021/12/19 11:42:35;;;;;;;;;;;7.50;99.90;;;;;;5079541;28;19925;-81
2021/12/19 11:47:46;;;;;;;;;;;7.40;99.90;;;;;;5080271;28;19978;-80
2021/12/19 11:50:23;;;;;;;;;;;7.40;99.90;;;;;;5087260;22;20296;-80
2021/12/19 11:52:50;;;;;;;;;;;7.40;99.90;;;;;;5085701;28;19924;-80
2021/12/19 11:55:22;;;;;;;;;;;7.40;99.90;;;;;;5086311;28;19947;-80
2021/12/19 11:58:06;;;;;;;;;;;7.40;99.90;;;;;;5085568;28;19966;-80
2021/12/19 12:00:34;;;;;;;;;;;7.40;99.90;;;;;;5085125;28;20037;-80
2021/12/19 12:03:11;;;;;;;;;;;7.40;99.90;;;;;;5086500;28;19928;-80
2021/12/19 12:05:41;;;;;;;;;;;7.40;99.90;;;;;;5085215;28;20370;-80
2021/12/19 12:08:08;;;;;;;;;;;7.40;99.90;;;;;;5084187;22;19978;-80
2021/12/19 12:10:54;;;;;;;;;;;7.40;99.90;;;;;;5062158;28;20384;-80
2021/12/19 12:13:23;;;;;;;;;;;7.40;99.90;;;;;;5062904;28;20026;-81
2021/12/19 12:15:52;;;;;;;;;;;7.40;99.90;;;;;;5063348;28;20366;-80
2021/12/19 12:18:35;;;;;;;;;;;8.30;99.90;;;;;;5080203;28;20326;-80
2021/12/19 12:21:24;;;;;;;;;;;7.40;99.90;;;;;;5061898;28;19935;-80
2021/12/19 12:23:55;;;;;;;;;;;7.40;99.90;;;;;;5062436;28;20397;-80
2021/12/19 12:26:26;;;;;;;;;;;7.70;99.90;;;;;;5062579;28;19924;-80
2021/12/19 12:28:52;;;;;;;;;;;7.30;99.90;;;;;;5070186;22;19925;-80
2021/12/19 12:31:18;;;;;;;;;;;7.40;99.90;;;;;;5084829;22;20404;-80
2021/12/19 12:33:44;;;;;;;;;;;7.80;99.90;;;;;;5071693;22;20398;-80
2021/12/19 12:36:10;;;;;;;;;;;7.40;99.90;;;;;;5079988;28;20401;-80
2021/12/19 12:38:35;;;;;;;;;;;8.00;99.90;;;;;;5063554;28;20370;-80
2021/12/19 12:41:07;;;;;;;;;;;7.80;99.90;;;;;;5084161;22;19988;-80
2021/12/19 12:43:34;;;;;;;;;;;7.40;99.90;;;;;;5092977;22;19931;-80
2021/12/19 12:46:02;;;;;;;;;;;7.50;99.90;;;;;;5069403;23;20157;-80
2021/12/19 12:48:54;;;;;;;;;;;7.50;99.90;;;;;;5058204;23;20440;-81
2021/12/19 12:51:23;;;;;;;;;;;7.50;99.90;;;;;;5079810;23;19923;-81
2021/12/19 12:53:50;;;;;;;;;;;7.50;99.90;;;;;;5101194;28;19924;-80
2021/12/19 12:56:18;;;;;;;;;;;8.50;99.90;;;;;;5101875;28;19924;-82
2021/12/19 12:58:48;;;;;;;;;;;7.50;99.90;;;;;;5100950;28;19924;-81
2021/12/19 13:01:28;;;;;;;;;;;8.40;99.90;;;;;;5093365;22;19968;-81
2021/12/19 13:03:53;;;;;;;;;;;7.50;99.90;;;;;;5080875;22;19925;-81
2021/12/19 13:06:34;;;;;;;;;;;7.50;99.90;;;;;;5039791;28;19978;-81
2021/12/19 13:09:11;;;;;;;;;;;7.60;99.90;;;;;;5041067;28;19939;-81
2021/12/19 13:11:37;;;;;;;;;;;7.50;99.90;;;;;;5091536;22;19932;-81
2021/12/19 13:14:10;;;;;;;;;;;7.60;99.90;;;;;;5080005;28;19931;-81
2021/12/19 13:16:45;;;;;;;;;;;7.40;99.90;;;;;;5086150;22;19931;-81
2021/12/19 13:19:30;;;;;;;;;;;7.60;99.90;;;;;;5081087;28;20118;-81
2021/12/19 13:21:55;;;;;;;;;;;8.30;99.90;;;;;;5105908;22;19981;-81
2021/12/19 13:24:22;;;;;;;;;;;7.90;99.90;;;;;;5062703;28;20366;-81
2021/12/19 13:26:48;;;;;;;;;;;7.60;99.90;;;;;;5065368;22;19964;-81
2021/12/19 13:29:18;;;;;;;;;;;7.60;99.90;;;;;;5059749;28;19950;-81
2021/12/19 13:31:43;;;;;;;;;;;7.60;99.90;;;;;;5101912;22;19937;-81
2021/12/19 13:34:13;;;;;;;;;;;7.60;99.90;;;;;;5061376;28;19967;-81
2021/12/19 13:36:39;;;;;;;;;;;7.60;99.90;;;;;;5061606;28;20003;-81
2021/12/19 13:39:15;;;;;;;;;;;7.60;99.90;;;;;;5078866;28;19928;-81
2021/12/19 13:41:41;;;;;;;;;;;7.60;99.90;;;;;;5061355;28;19931;-81
2021/12/19 13:44:08;;;;;;;;;;;7.60;99.90;;;;;;5065431;23;19924;-81
2021/12/19 13:46:34;;;;;;;;;;;8.50;99.90;;;;;;5067437;22;20270;-82
2021/12/19 13:48:59;;;;;;;;;;;7.60;99.90;;;;;;5061226;28;19938;-81
2021/12/19 13:53:53;;;;;;;;;;;7.60;99.90;;;;;;5113360;22;19932;-81
2021/12/19 13:56:18;;;;;;;;;;;7.60;99.90;;;;;;5099319;28;19988;-81
2021/12/19 13:58:52;;;;;;;;;;;7.70;99.90;;;;;;5101367;28;20444;-81
2021/12/19 14:01:19;;;;;;;;;;;7.60;99.90;;;;;;5101722;28;20368;-81
2021/12/19 14:03:45;;;;;;;;;;;7.70;99.90;;;;;;5100899;28;19931;-81
2021/12/19 14:06:11;;;;;;;;;;;7.70;99.90;;;;;;5100286;28;19923;-81
2021/12/19 14:08:37;;;;;;;;;;;8.10;99.90;;;;;;5107125;22;19924;-81
2021/12/19 14:11:09;;;;;;;;;;;7.60;99.90;;;;;;5062437;28;19962;-81
2021/12/19 14:13:37;;;;;;;;;;;7.70;99.90;;;;;;5079099;28;19930;-81
2021/12/19 14:16:03;;;;;;;;;;;7.70;99.90;;;;;;5080777;22;19924;-81
2021/12/19 14:18:30;;;;;;;;;;;7.60;99.90;;;;;;5081880;22;19924;-81
2021/12/19 14:20:56;;;;;;;;;;;7.60;99.90;;;;;;5074409;28;19970;-81
2021/12/19 14:23:28;;;;;;;;;;;7.70;99.90;;;;;;5106815;22;19924;-81
2021/12/19 14:25:54;;;;;;;;;;;7.60;99.90;;;;;;5056819;28;20282;-81
2021/12/19 14:28:29;;;;;;;;;;;7.60;99.90;;;;;;5042036;28;19925;-81
2021/12/19 14:31:06;;;;;;;;;;;7.60;99.90;;;;;;5082271;22;19928;-81
2021/12/19 14:33:36;;;;;;;;;;;7.60;99.90;;;;;;5098732;28;20270;-81
2021/12/19 14:36:05;;;;;;;;;;;7.60;99.90;;;;;;5094476;22;20426;-81
2021/12/19 14:38:30;;;;;;;;;;;7.60;99.90;;;;;;5059015;28;19925;-81
2021/12/19 14:41:01;;;;;;;;;;;8.60;99.90;;;;;;5075675;28;19925;-81
2021/12/19 14:43:31;;;;;;;;;;;7.60;99.90;;;;;;5059407;28;19924;-81
2021/12/19 14:45:57;;;;;;;;;;;7.60;99.90;;;;;;5076651;28;19928;-81
2021/12/19 14:48:29;;;;;;;;;;;8.20;99.90;;;;;;5058639;28;19970;-82
2021/12/19 14:51:07;;;;;;;;;;;7.60;99.90;;;;;;5058818;28;19924;-81
2021/12/19 14:53:33;;;;;;;;;;;7.60;99.90;;;;;;5058285;28;20011;-82
2021/12/19 14:56:06;;;;;;;;;;;7.80;99.90;;;;;;5077361;28;19929;-81
2021/12/19 14:58:34;;;;;;;;;;;7.60;99.90;;;;;;5060336;28;20069;-81
2021/12/19 15:01:04;;;;;;;;;;;7.50;99.90;;;;;;5060579;28;19968;-81
2021/12/19 15:03:32;;;;;;;;;;;7.50;99.90;;;;;;5060044;28;19924;-81
2021/12/19 15:06:00;;;;;;;;;;;7.80;99.90;;;;;;5059287;28;20496;-81
2021/12/19 15:08:32;;;;;;;;;;;7.40;99.90;;;;;;5091019;22;19931;-81
2021/12/19 15:10:59;;;;;;;;;;;7.40;99.90;;;;;;5102365;22;19924;-80
2021/12/19 15:13:31;;;;;;;;;;;7.40;99.90;;;;;;5079613;28;19931;-81
2021/12/19 15:15:57;;;;;;;;;;;7.40;99.90;;;;;;5053955;28;19929;-81
2021/12/19 15:18:23;;;;;;;;;;;8.20;99.90;;;;;;5054626;28;19994;-81
2021/12/19 15:20:49;;;;;;;;;;;8.40;99.90;;;;;;5052341;23;19924;-81
2021/12/19 15:23:17;;;;;;;;;;;7.40;99.90;;;;;;5061247;28;20339;-80
2021/12/19 15:25:47;;;;;;;;;;;7.40;99.90;;;;;;5078145;22;20332;-81
2021/12/19 15:28:13;;;;;;;;;;;8.30;99.90;;;;;;5071291;22;19925;-81
2021/12/19 15:30:39;;;;;;;;;;;7.40;99.90;;;;;;5088540;22;19924;-81
2021/12/19 15:33:04;;;;;;;;;;;7.70;99.90;;;;;;5092916;22;20274;-80
2021/12/19 15:35:32;;;;;;;;;;;8.50;99.90;;;;;;5087448;22;19959;-81
2021/12/19 15:37:58;;;;;;;;;;;7.40;99.90;;;;;;5068289;23;19935;-80
2021/12/19 15:40:23;;;;;;;;;;;7.40;99.90;;;;;;5084976;22;19924;-81
2021/12/19 15:42:49;;;;;;;;;;;7.70;99.90;;;;;;5060691;28;20366;-81
2021/12/19 15:45:14;;;;;;;;;;;7.80;99.90;;;;;;5062002;28;19924;-81
2021/12/19 15:47:40;;;;;;;;;;;7.30;99.90;;;;;;5062096;28;19975;-81
2021/12/19 15:50:06;;;;;;;;;;;7.80;99.90;;;;;;5081813;22;20275;-80
2021/12/19 15:52:32;;;;;;;;;;;7.40;99.90;;;;;;5089113;22;19931;-81